sensor_id;sensor_type;location;lat;lon;timestamp;P1;durP1;ratioP1;P2;durP2;ratioP2
22965;SDS011;11649;48.090;9.754;2023-06-22T00:01:19;13.02;;;6.85;;
22965;SDS011;11649;48.090;9.754;2023-06-22T00:03:47;21.17;;;7.70;;
22965;SDS011;11649;48.090;9.754;2023-06-22T00:06:14;19.38;;;9.25;;
22965;SDS011;11649;48.090;9.754;2023-06-22T00:08:41;15.35;;;7.97;;
22965;SDS011;11649;48.090;9.754;2023-06-22T00:11:08;16.25;;;8.68;;
22965;SDS011;11649;48.090;9.754;2023-06-22T00:13:35;15.85;;;8.82;;
22965;SDS011;11649;48.090;9.754;2023-06-22T00:16:02;17.23;;;9.70;;
22965;SDS011;11649;48.090;9.754;2023-06-22T00:18:29;14.35;;;9.35;;
22965;SDS011;11649;48.090;9.754;2023-06-22T00:20:57;14.60;;;9.07;;
22965;SDS011;11649;48.090;9.754;2023-06-22T00:23:24;18.20;;;10.63;;
22965;SDS011;11649;48.090;9.754;2023-06-22T00:25:52;18.23;;;10.35;;
22965;SDS011;11649;48.090;9.754;2023-06-22T00:28:19;15.23;;;9.05;;
22965;SDS011;11649;48.090;9.754;2023-06-22T00:30:46;15.68;;;10.10;;
22965;SDS011;11649;48.090;9.754;2023-06-22T00:33:15;16.95;;;11.07;;
22965;SDS011;11649;48.090;9.754;2023-06-22T00:35:42;22.13;;;11.25;;
22965;SDS011;11649;48.090;9.754;2023-06-22T00:38:09;17.67;;;10.10;;
22965;SDS011;11649;48.090;9.754;2023-06-22T00:40:37;16.60;;;10.88;;
22965;SDS011;11649;48.090;9.754;2023-06-22T00:43:04;19.42;;;10.75;;
22965;SDS011;11649;48.090;9.754;2023-06-22T00:45:32;20.55;;;11.00;;
22965;SDS011;11649;48.090;9.754;2023-06-22T00:47:58;16.52;;;10.82;;
22965;SDS011;11649;48.090;9.754;2023-06-22T00:50:28;19.02;;;11.32;;
22965;SDS011;11649;48.090;9.754;2023-06-22T00:53:00;14.95;;;10.63;;
22965;SDS011;11649;48.090;9.754;2023-06-22T00:55:36;20.45;;;10.05;;
22965;SDS011;11649;48.090;9.754;2023-06-22T00:58:08;18.98;;;10.90;;
22965;SDS011;11649;48.090;9.754;2023-06-22T01:00:37;20.90;;;11.00;;
22965;SDS011;11649;48.090;9.754;2023-06-22T01:03:05;16.63;;;11.15;;
22965;SDS011;11649;48.090;9.754;2023-06-22T01:05:37;20.73;;;12.00;;
22965;SDS011;11649;48.090;9.754;2023-06-22T01:16:20;17.73;;;11.98;;
22965;SDS011;11649;48.090;9.754;2023-06-22T01:18:55;23.40;;;12.50;;
22965;SDS011;11649;48.090;9.754;2023-06-22T01:21:24;17.15;;;11.77;;
22965;SDS011;11649;48.090;9.754;2023-06-22T01:26:43;19.05;;;12.48;;
22965;SDS011;11649;48.090;9.754;2023-06-22T01:29:26;20.55;;;12.75;;
22965;SDS011;11649;48.090;9.754;2023-06-22T01:31:55;22.92;;;12.73;;
22965;SDS011;11649;48.090;9.754;2023-06-22T01:34:24;18.80;;;11.85;;
22965;SDS011;11649;48.090;9.754;2023-06-22T01:36:51;17.08;;;11.30;;
22965;SDS011;11649;48.090;9.754;2023-06-22T01:39:20;20.05;;;12.43;;
22965;SDS011;11649;48.090;9.754;2023-06-22T01:41:48;17.27;;;11.38;;
22965;SDS011;11649;48.090;9.754;2023-06-22T01:44:15;19.35;;;11.43;;
22965;SDS011;11649;48.090;9.754;2023-06-22T01:46:42;15.98;;;11.45;;
22965;SDS011;11649;48.090;9.754;2023-06-22T01:49:10;17.85;;;11.35;;
22965;SDS011;11649;48.090;9.754;2023-06-22T01:51:37;15.20;;;11.32;;
22965;SDS011;11649;48.090;9.754;2023-06-22T01:54:05;12.68;;;11.02;;
22965;SDS011;11649;48.090;9.754;2023-06-22T01:56:32;14.90;;;10.65;;
22965;SDS011;11649;48.090;9.754;2023-06-22T01:59:01;16.63;;;10.50;;
22965;SDS011;11649;48.090;9.754;2023-06-22T02:01:37;18.60;;;11.93;;
22965;SDS011;11649;48.090;9.754;2023-06-22T02:04:26;15.05;;;11.50;;
22965;SDS011;11649;48.090;9.754;2023-06-22T02:07:00;15.40;;;10.63;;
22965;SDS011;11649;48.090;9.754;2023-06-22T02:09:29;18.77;;;11.85;;
22965;SDS011;11649;48.090;9.754;2023-06-22T02:11:57;22.30;;;12.82;;
22965;SDS011;11649;48.090;9.754;2023-06-22T02:14:28;18.33;;;13.27;;
22965;SDS011;11649;48.090;9.754;2023-06-22T02:16:55;18.25;;;12.20;;
22965;SDS011;11649;48.090;9.754;2023-06-22T02:19:26;20.83;;;14.02;;
22965;SDS011;11649;48.090;9.754;2023-06-22T02:21:53;22.63;;;14.63;;
22965;SDS011;11649;48.090;9.754;2023-06-22T02:24:20;19.45;;;13.75;;
22965;SDS011;11649;48.090;9.754;2023-06-22T02:26:49;21.63;;;14.63;;
22965;SDS011;11649;48.090;9.754;2023-06-22T02:29:16;20.67;;;14.98;;
22965;SDS011;11649;48.090;9.754;2023-06-22T02:31:43;21.08;;;15.02;;
22965;SDS011;11649;48.090;9.754;2023-06-22T02:34:10;22.25;;;14.43;;
22965;SDS011;11649;48.090;9.754;2023-06-22T02:36:40;22.20;;;15.77;;
22965;SDS011;11649;48.090;9.754;2023-06-22T02:39:20;23.05;;;15.60;;
22965;SDS011;11649;48.090;9.754;2023-06-22T02:41:49;25.05;;;16.45;;
22965;SDS011;11649;48.090;9.754;2023-06-22T02:44:20;26.30;;;16.40;;
22965;SDS011;11649;48.090;9.754;2023-06-22T02:46:47;26.45;;;16.70;;
22965;SDS011;11649;48.090;9.754;2023-06-22T02:49:14;23.80;;;17.08;;
22965;SDS011;11649;48.090;9.754;2023-06-22T02:51:47;22.90;;;16.98;;
22965;SDS011;11649;48.090;9.754;2023-06-22T02:54:14;26.95;;;17.05;;
22965;SDS011;11649;48.090;9.754;2023-06-22T02:56:42;31.70;;;18.60;;
22965;SDS011;11649;48.090;9.754;2023-06-22T02:59:12;27.38;;;18.08;;
22965;SDS011;11649;48.090;9.754;2023-06-22T03:01:39;28.48;;;19.27;;
22965;SDS011;11649;48.090;9.754;2023-06-22T03:04:07;27.02;;;19.58;;
22965;SDS011;11649;48.090;9.754;2023-06-22T03:06:35;25.38;;;18.30;;
22965;SDS011;11649;48.090;9.754;2023-06-22T03:09:03;24.83;;;17.23;;
22965;SDS011;11649;48.090;9.754;2023-06-22T03:11:31;27.65;;;18.15;;
22965;SDS011;11649;48.090;9.754;2023-06-22T03:14:02;26.15;;;16.92;;
22965;SDS011;11649;48.090;9.754;2023-06-22T03:16:29;22.23;;;17.02;;
22965;SDS011;11649;48.090;9.754;2023-06-22T03:18:55;22.35;;;16.83;;
22965;SDS011;11649;48.090;9.754;2023-06-22T03:21:23;25.17;;;16.90;;
22965;SDS011;11649;48.090;9.754;2023-06-22T03:23:50;23.63;;;17.65;;
22965;SDS011;11649;48.090;9.754;2023-06-22T03:26:17;23.83;;;16.42;;
22965;SDS011;11649;48.090;9.754;2023-06-22T03:28:45;21.77;;;15.68;;
22965;SDS011;11649;48.090;9.754;2023-06-22T03:31:12;27.60;;;18.70;;
22965;SDS011;11649;48.090;9.754;2023-06-22T03:33:38;24.88;;;17.20;;
22965;SDS011;11649;48.090;9.754;2023-06-22T03:36:05;23.85;;;17.77;;
22965;SDS011;11649;48.090;9.754;2023-06-22T03:38:32;27.20;;;18.02;;
22965;SDS011;11649;48.090;9.754;2023-06-22T03:40:59;27.52;;;17.88;;
22965;SDS011;11649;48.090;9.754;2023-06-22T03:43:26;23.00;;;17.92;;
22965;SDS011;11649;48.090;9.754;2023-06-22T03:45:52;29.33;;;18.98;;
22965;SDS011;11649;48.090;9.754;2023-06-22T03:48:19;31.25;;;19.35;;
22965;SDS011;11649;48.090;9.754;2023-06-22T03:50:46;28.25;;;18.13;;
22965;SDS011;11649;48.090;9.754;2023-06-22T03:53:13;26.88;;;18.90;;
22965;SDS011;11649;48.090;9.754;2023-06-22T03:55:49;29.80;;;19.45;;
22965;SDS011;11649;48.090;9.754;2023-06-22T03:58:18;26.27;;;19.00;;
22965;SDS011;11649;48.090;9.754;2023-06-22T04:00:46;31.23;;;19.75;;
22965;SDS011;11649;48.090;9.754;2023-06-22T04:03:13;25.02;;;18.20;;
22965;SDS011;11649;48.090;9.754;2023-06-22T04:05:41;28.30;;;18.40;;
22965;SDS011;11649;48.090;9.754;2023-06-22T04:08:08;28.00;;;18.10;;
22965;SDS011;11649;48.090;9.754;2023-06-22T04:10:35;27.42;;;18.15;;
22965;SDS011;11649;48.090;9.754;2023-06-22T04:13:02;23.80;;;17.20;;
22965;SDS011;11649;48.090;9.754;2023-06-22T04:15:28;25.13;;;17.02;;
22965;SDS011;11649;48.090;9.754;2023-06-22T04:17:55;27.52;;;17.70;;
22965;SDS011;11649;48.090;9.754;2023-06-22T04:20:23;27.40;;;18.05;;
22965;SDS011;11649;48.090;9.754;2023-06-22T04:22:55;25.33;;;17.55;;
22965;SDS011;11649;48.090;9.754;2023-06-22T04:25:22;26.08;;;17.88;;
22965;SDS011;11649;48.090;9.754;2023-06-22T04:27:48;24.42;;;18.42;;
22965;SDS011;11649;48.090;9.754;2023-06-22T04:30:16;25.08;;;16.80;;
22965;SDS011;11649;48.090;9.754;2023-06-22T04:32:43;24.40;;;17.23;;
22965;SDS011;11649;48.090;9.754;2023-06-22T04:35:11;28.58;;;17.40;;
22965;SDS011;11649;48.090;9.754;2023-06-22T04:37:38;30.95;;;17.75;;
22965;SDS011;11649;48.090;9.754;2023-06-22T04:40:06;30.45;;;17.90;;
22965;SDS011;11649;48.090;9.754;2023-06-22T04:42:34;27.67;;;17.52;;
22965;SDS011;11649;48.090;9.754;2023-06-22T04:45:04;25.25;;;18.15;;
22965;SDS011;11649;48.090;9.754;2023-06-22T04:47:31;29.23;;;18.40;;
22965;SDS011;11649;48.090;9.754;2023-06-22T04:49:58;26.42;;;18.25;;
22965;SDS011;11649;48.090;9.754;2023-06-22T04:52:24;27.02;;;17.00;;
22965;SDS011;11649;48.090;9.754;2023-06-22T04:54:51;21.48;;;16.13;;
22965;SDS011;11649;48.090;9.754;2023-06-22T04:57:22;21.58;;;16.08;;
22965;SDS011;11649;48.090;9.754;2023-06-22T04:59:56;26.27;;;16.77;;
22965;SDS011;11649;48.090;9.754;2023-06-22T05:02:23;27.50;;;17.25;;
22965;SDS011;11649;48.090;9.754;2023-06-22T05:04:54;22.70;;;16.80;;
22965;SDS011;11649;48.090;9.754;2023-06-22T05:07:23;22.90;;;15.98;;
22965;SDS011;11649;48.090;9.754;2023-06-22T05:09:51;24.95;;;16.48;;
22965;SDS011;11649;48.090;9.754;2023-06-22T05:12:18;25.23;;;16.50;;
22965;SDS011;11649;48.090;9.754;2023-06-22T05:14:45;22.70;;;17.00;;
22965;SDS011;11649;48.090;9.754;2023-06-22T05:17:12;25.65;;;16.60;;
22965;SDS011;11649;48.090;9.754;2023-06-22T05:19:41;27.70;;;17.38;;
22965;SDS011;11649;48.090;9.754;2023-06-22T05:22:11;24.40;;;16.70;;
22965;SDS011;11649;48.090;9.754;2023-06-22T05:24:38;23.50;;;16.88;;
22965;SDS011;11649;48.090;9.754;2023-06-22T05:27:05;19.77;;;14.55;;
22965;SDS011;11649;48.090;9.754;2023-06-22T05:29:32;21.65;;;14.27;;
22965;SDS011;11649;48.090;9.754;2023-06-22T05:31:59;21.83;;;15.70;;
22965;SDS011;11649;48.090;9.754;2023-06-22T05:34:25;26.83;;;15.88;;
22965;SDS011;11649;48.090;9.754;2023-06-22T05:36:52;24.95;;;15.35;;
22965;SDS011;11649;48.090;9.754;2023-06-22T05:39:19;24.27;;;15.40;;
22965;SDS011;11649;48.090;9.754;2023-06-22T05:41:46;20.08;;;12.93;;
22965;SDS011;11649;48.090;9.754;2023-06-22T05:44:13;21.05;;;14.60;;
22965;SDS011;11649;48.090;9.754;2023-06-22T05:46:40;18.65;;;13.32;;
22965;SDS011;11649;48.090;9.754;2023-06-22T05:49:11;22.23;;;14.18;;
22965;SDS011;11649;48.090;9.754;2023-06-22T05:51:39;19.88;;;13.77;;
22965;SDS011;11649;48.090;9.754;2023-06-22T05:54:06;21.95;;;13.77;;
22965;SDS011;11649;48.090;9.754;2023-06-22T05:56:34;17.83;;;13.00;;
22965;SDS011;11649;48.090;9.754;2023-06-22T05:59:01;17.25;;;12.68;;
22965;SDS011;11649;48.090;9.754;2023-06-22T06:01:28;14.85;;;10.95;;
22965;SDS011;11649;48.090;9.754;2023-06-22T06:03:55;15.20;;;11.30;;
22965;SDS011;11649;48.090;9.754;2023-06-22T06:06:22;15.98;;;10.73;;
22965;SDS011;11649;48.090;9.754;2023-06-22T06:08:54;16.58;;;11.20;;
22965;SDS011;11649;48.090;9.754;2023-06-22T06:11:21;18.42;;;11.90;;
22965;SDS011;11649;48.090;9.754;2023-06-22T06:13:48;14.13;;;10.27;;
22965;SDS011;11649;48.090;9.754;2023-06-22T06:16:15;17.02;;;10.43;;
22965;SDS011;11649;48.090;9.754;2023-06-22T06:18:42;16.75;;;10.43;;
22965;SDS011;11649;48.090;9.754;2023-06-22T06:21:09;17.00;;;11.00;;
22965;SDS011;11649;48.090;9.754;2023-06-22T06:23:36;15.20;;;10.55;;
22965;SDS011;11649;48.090;9.754;2023-06-22T06:26:02;19.30;;;10.18;;
22965;SDS011;11649;48.090;9.754;2023-06-22T06:28:34;17.52;;;9.68;;
22965;SDS011;11649;48.090;9.754;2023-06-22T06:31:02;18.38;;;9.52;;
22965;SDS011;11649;48.090;9.754;2023-06-22T06:33:29;16.30;;;9.10;;
22965;SDS011;11649;48.090;9.754;2023-06-22T06:35:57;16.80;;;9.85;;
22965;SDS011;11649;48.090;9.754;2023-06-22T06:38:24;18.55;;;9.45;;
22965;SDS011;11649;48.090;9.754;2023-06-22T06:40:51;16.88;;;9.60;;
22965;SDS011;11649;48.090;9.754;2023-06-22T06:43:18;12.55;;;8.73;;
22965;SDS011;11649;48.090;9.754;2023-06-22T06:45:44;25.48;;;9.85;;
22965;SDS011;11649;48.090;9.754;2023-06-22T06:48:11;14.07;;;9.02;;
22965;SDS011;11649;48.090;9.754;2023-06-22T06:50:38;14.48;;;8.73;;
22965;SDS011;11649;48.090;9.754;2023-06-22T06:53:05;15.20;;;9.45;;
22965;SDS011;11649;48.090;9.754;2023-06-22T06:55:32;16.50;;;9.68;;
22965;SDS011;11649;48.090;9.754;2023-06-22T06:57:59;15.27;;;9.13;;
22965;SDS011;11649;48.090;9.754;2023-06-22T07:00:26;14.85;;;8.98;;
22965;SDS011;11649;48.090;9.754;2023-06-22T07:02:53;13.90;;;9.45;;
22965;SDS011;11649;48.090;9.754;2023-06-22T07:05:20;16.98;;;8.60;;
22965;SDS011;11649;48.090;9.754;2023-06-22T07:07:47;14.98;;;8.95;;
22965;SDS011;11649;48.090;9.754;2023-06-22T07:10:15;15.20;;;9.25;;
22965;SDS011;11649;48.090;9.754;2023-06-22T07:12:42;15.05;;;8.63;;
22965;SDS011;11649;48.090;9.754;2023-06-22T07:15:09;14.07;;;8.63;;
22965;SDS011;11649;48.090;9.754;2023-06-22T07:17:39;12.50;;;8.63;;
22965;SDS011;11649;48.090;9.754;2023-06-22T07:20:07;15.50;;;9.13;;
22965;SDS011;11649;48.090;9.754;2023-06-22T07:22:37;14.07;;;8.48;;
22965;SDS011;11649;48.090;9.754;2023-06-22T07:25:05;11.65;;;8.00;;
22965;SDS011;11649;48.090;9.754;2023-06-22T07:27:37;12.68;;;7.57;;
22965;SDS011;11649;48.090;9.754;2023-06-22T07:30:06;13.73;;;8.05;;
22965;SDS011;11649;48.090;9.754;2023-06-22T07:32:34;14.43;;;8.38;;
22965;SDS011;11649;48.090;9.754;2023-06-22T07:35:01;15.23;;;8.25;;
22965;SDS011;11649;48.090;9.754;2023-06-22T07:37:28;14.80;;;8.57;;
22965;SDS011;11649;48.090;9.754;2023-06-22T07:39:55;15.80;;;8.65;;
22965;SDS011;11649;48.090;9.754;2023-06-22T07:42:25;12.02;;;8.13;;
22965;SDS011;11649;48.090;9.754;2023-06-22T07:44:52;13.80;;;8.30;;
22965;SDS011;11649;48.090;9.754;2023-06-22T07:47:20;14.93;;;8.75;;
22965;SDS011;11649;48.090;9.754;2023-06-22T07:49:51;11.50;;;7.70;;
22965;SDS011;11649;48.090;9.754;2023-06-22T07:52:21;16.95;;;9.27;;
22965;SDS011;11649;48.090;9.754;2023-06-22T07:54:47;15.15;;;9.18;;
22965;SDS011;11649;48.090;9.754;2023-06-22T07:57:14;15.35;;;9.00;;
22965;SDS011;11649;48.090;9.754;2023-06-22T07:59:41;16.85;;;9.27;;
22965;SDS011;11649;48.090;9.754;2023-06-22T08:02:08;12.23;;;7.60;;
22965;SDS011;11649;48.090;9.754;2023-06-22T08:04:35;11.75;;;7.47;;
22965;SDS011;11649;48.090;9.754;2023-06-22T08:07:02;10.77;;;7.22;;
22965;SDS011;11649;48.090;9.754;2023-06-22T08:09:30;12.55;;;7.45;;
22965;SDS011;11649;48.090;9.754;2023-06-22T08:11:58;10.10;;;7.45;;
22965;SDS011;11649;48.090;9.754;2023-06-22T08:14:25;12.80;;;7.80;;
22965;SDS011;11649;48.090;9.754;2023-06-22T08:16:53;12.60;;;7.10;;
22965;SDS011;11649;48.090;9.754;2023-06-22T08:19:19;9.85;;;6.90;;
22965;SDS011;11649;48.090;9.754;2023-06-22T08:21:46;16.35;;;8.25;;
22965;SDS011;11649;48.090;9.754;2023-06-22T08:24:13;15.27;;;7.30;;
22965;SDS011;11649;48.090;9.754;2023-06-22T08:26:40;13.88;;;7.97;;
22965;SDS011;11649;48.090;9.754;2023-06-22T08:29:06;11.20;;;8.27;;
22965;SDS011;11649;48.090;9.754;2023-06-22T08:31:33;12.00;;;7.72;;
22965;SDS011;11649;48.090;9.754;2023-06-22T08:34:00;9.07;;;6.80;;
22965;SDS011;11649;48.090;9.754;2023-06-22T08:36:27;12.05;;;7.20;;
22965;SDS011;11649;48.090;9.754;2023-06-22T08:38:59;17.38;;;7.97;;
22965;SDS011;11649;48.090;9.754;2023-06-22T08:41:29;12.55;;;7.90;;
22965;SDS011;11649;48.090;9.754;2023-06-22T08:43:56;12.85;;;7.32;;
22965;SDS011;11649;48.090;9.754;2023-06-22T08:46:23;13.82;;;7.68;;
22965;SDS011;11649;48.090;9.754;2023-06-22T08:48:56;12.43;;;7.00;;
22965;SDS011;11649;48.090;9.754;2023-06-22T08:51:26;11.63;;;6.97;;
22965;SDS011;11649;48.090;9.754;2023-06-22T08:53:53;11.13;;;6.90;;
22965;SDS011;11649;48.090;9.754;2023-06-22T08:56:20;10.73;;;6.45;;
22965;SDS011;11649;48.090;9.754;2023-06-22T08:58:47;17.10;;;7.72;;
22965;SDS011;11649;48.090;9.754;2023-06-22T09:01:13;14.05;;;7.75;;
22965;SDS011;11649;48.090;9.754;2023-06-22T09:03:42;12.80;;;7.60;;
22965;SDS011;11649;48.090;9.754;2023-06-22T09:06:09;14.45;;;7.60;;
22965;SDS011;11649;48.090;9.754;2023-06-22T09:08:36;12.63;;;7.95;;
22965;SDS011;11649;48.090;9.754;2023-06-22T09:11:03;11.85;;;7.60;;
22965;SDS011;11649;48.090;9.754;2023-06-22T09:13:30;14.27;;;7.80;;
22965;SDS011;11649;48.090;9.754;2023-06-22T09:15:59;11.93;;;7.53;;
22965;SDS011;11649;48.090;9.754;2023-06-22T09:18:26;18.58;;;8.20;;
22965;SDS011;11649;48.090;9.754;2023-06-22T09:20:52;13.20;;;8.23;;
22965;SDS011;11649;48.090;9.754;2023-06-22T09:23:19;18.85;;;9.20;;
22965;SDS011;11649;48.090;9.754;2023-06-22T09:25:46;16.98;;;8.68;;
22965;SDS011;11649;48.090;9.754;2023-06-22T09:28:14;16.13;;;9.13;;
22965;SDS011;11649;48.090;9.754;2023-06-22T09:30:42;16.23;;;9.20;;
22965;SDS011;11649;48.090;9.754;2023-06-22T09:33:10;20.55;;;9.27;;
22965;SDS011;11649;48.090;9.754;2023-06-22T09:35:37;13.55;;;8.93;;
22965;SDS011;11649;48.090;9.754;2023-06-22T09:38:04;13.63;;;9.68;;
22965;SDS011;11649;48.090;9.754;2023-06-22T09:40:31;15.38;;;10.73;;
22965;SDS011;11649;48.090;9.754;2023-06-22T09:43:01;13.45;;;8.35;;
22965;SDS011;11649;48.090;9.754;2023-06-22T09:45:28;12.48;;;7.32;;
22965;SDS011;11649;48.090;9.754;2023-06-22T09:47:55;14.63;;;7.70;;
22965;SDS011;11649;48.090;9.754;2023-06-22T09:50:21;15.00;;;7.57;;
22965;SDS011;11649;48.090;9.754;2023-06-22T09:52:48;17.20;;;8.65;;
22965;SDS011;11649;48.090;9.754;2023-06-22T09:55:21;13.98;;;7.97;;
22965;SDS011;11649;48.090;9.754;2023-06-22T09:57:48;18.33;;;9.68;;
22965;SDS011;11649;48.090;9.754;2023-06-22T10:00:15;15.05;;;9.55;;
22965;SDS011;11649;48.090;9.754;2023-06-22T10:02:43;17.20;;;8.95;;
22965;SDS011;11649;48.090;9.754;2023-06-22T10:05:11;17.40;;;9.15;;
22965;SDS011;11649;48.090;9.754;2023-06-22T10:07:38;15.32;;;7.95;;
22965;SDS011;11649;48.090;9.754;2023-06-22T10:10:09;15.75;;;8.73;;
22965;SDS011;11649;48.090;9.754;2023-06-22T10:12:40;13.95;;;8.50;;
22965;SDS011;11649;48.090;9.754;2023-06-22T10:15:09;21.27;;;9.77;;
22965;SDS011;11649;48.090;9.754;2023-06-22T10:17:37;13.38;;;7.85;;
22965;SDS011;11649;48.090;9.754;2023-06-22T10:20:05;14.75;;;8.60;;
22965;SDS011;11649;48.090;9.754;2023-06-22T10:22:43;20.33;;;10.13;;
22965;SDS011;11649;48.090;9.754;2023-06-22T10:25:11;15.93;;;9.27;;
22965;SDS011;11649;48.090;9.754;2023-06-22T10:27:39;11.05;;;6.70;;
22965;SDS011;11649;48.090;9.754;2023-06-22T10:30:07;14.25;;;7.88;;
22965;SDS011;11649;48.090;9.754;2023-06-22T10:32:35;13.10;;;7.30;;
22965;SDS011;11649;48.090;9.754;2023-06-22T10:35:03;13.50;;;7.18;;
22965;SDS011;11649;48.090;9.754;2023-06-22T10:37:32;13.35;;;6.97;;
22965;SDS011;11649;48.090;9.754;2023-06-22T10:39:58;12.25;;;7.40;;
22965;SDS011;11649;48.090;9.754;2023-06-22T10:42:25;25.02;;;9.98;;
22965;SDS011;11649;48.090;9.754;2023-06-22T10:44:52;16.75;;;9.82;;
22965;SDS011;11649;48.090;9.754;2023-06-22T10:47:19;14.43;;;8.35;;
22965;SDS011;11649;48.090;9.754;2023-06-22T10:49:45;16.48;;;7.32;;
22965;SDS011;11649;48.090;9.754;2023-06-22T10:52:12;14.85;;;8.27;;
22965;SDS011;11649;48.090;9.754;2023-06-22T10:54:39;13.60;;;7.50;;
22965;SDS011;11649;48.090;9.754;2023-06-22T10:57:07;13.02;;;7.40;;
22965;SDS011;11649;48.090;9.754;2023-06-22T10:59:33;12.85;;;7.78;;
22965;SDS011;11649;48.090;9.754;2023-06-22T11:02:01;19.27;;;8.68;;
22965;SDS011;11649;48.090;9.754;2023-06-22T11:04:28;15.43;;;7.82;;
22965;SDS011;11649;48.090;9.754;2023-06-22T11:06:55;14.40;;;7.28;;
22965;SDS011;11649;48.090;9.754;2023-06-22T11:09:22;15.07;;;7.47;;
22965;SDS011;11649;48.090;9.754;2023-06-22T11:11:53;15.48;;;6.88;;
22965;SDS011;11649;48.090;9.754;2023-06-22T11:14:22;16.45;;;7.28;;
22965;SDS011;11649;48.090;9.754;2023-06-22T11:16:49;13.90;;;7.05;;
22965;SDS011;11649;48.090;9.754;2023-06-22T11:19:16;19.25;;;7.63;;
22965;SDS011;11649;48.090;9.754;2023-06-22T11:21:43;13.90;;;6.72;;
22965;SDS011;11649;48.090;9.754;2023-06-22T11:24:10;10.68;;;5.93;;
22965;SDS011;11649;48.090;9.754;2023-06-22T11:26:37;13.70;;;6.20;;
22965;SDS011;11649;48.090;9.754;2023-06-22T11:29:04;16.08;;;5.88;;
22965;SDS011;11649;48.090;9.754;2023-06-22T11:31:39;17.65;;;5.78;;
22965;SDS011;11649;48.090;9.754;2023-06-22T11:34:06;14.82;;;6.32;;
22965;SDS011;11649;48.090;9.754;2023-06-22T11:36:33;15.55;;;5.88;;
22965;SDS011;11649;48.090;9.754;2023-06-22T11:39:01;16.60;;;5.90;;
22965;SDS011;11649;48.090;9.754;2023-06-22T11:41:29;13.45;;;5.95;;
22965;SDS011;11649;48.090;9.754;2023-06-22T11:43:56;14.48;;;5.90;;
22965;SDS011;11649;48.090;9.754;2023-06-22T11:46:23;12.43;;;5.88;;
22965;SDS011;11649;48.090;9.754;2023-06-22T11:48:50;13.13;;;6.25;;
22965;SDS011;11649;48.090;9.754;2023-06-22T11:51:16;13.88;;;6.00;;
22965;SDS011;11649;48.090;9.754;2023-06-22T11:53:43;14.27;;;6.15;;
22965;SDS011;11649;48.090;9.754;2023-06-22T11:56:10;12.27;;;5.97;;
22965;SDS011;11649;48.090;9.754;2023-06-22T11:58:37;15.45;;;5.65;;
22965;SDS011;11649;48.090;9.754;2023-06-22T12:01:03;14.15;;;6.30;;
22965;SDS011;11649;48.090;9.754;2023-06-22T12:03:31;12.07;;;6.50;;
22965;SDS011;11649;48.090;9.754;2023-06-22T12:05:59;11.55;;;5.97;;
22965;SDS011;11649;48.090;9.754;2023-06-22T12:08:26;10.98;;;5.22;;
22965;SDS011;11649;48.090;9.754;2023-06-22T12:10:53;12.30;;;6.03;;
22965;SDS011;11649;48.090;9.754;2023-06-22T12:13:20;15.77;;;6.63;;
22965;SDS011;11649;48.090;9.754;2023-06-22T12:15:47;11.10;;;5.28;;
22965;SDS011;11649;48.090;9.754;2023-06-22T12:18:14;11.98;;;5.55;;
22965;SDS011;11649;48.090;9.754;2023-06-22T12:20:41;20.50;;;5.63;;
22965;SDS011;11649;48.090;9.754;2023-06-22T12:23:08;16.60;;;5.47;;
22965;SDS011;11649;48.090;9.754;2023-06-22T12:25:34;13.15;;;5.22;;
22965;SDS011;11649;48.090;9.754;2023-06-22T12:28:01;12.88;;;5.80;;
22965;SDS011;11649;48.090;9.754;2023-06-22T12:30:28;14.13;;;5.38;;
22965;SDS011;11649;48.090;9.754;2023-06-22T12:32:56;12.43;;;5.80;;
22965;SDS011;11649;48.090;9.754;2023-06-22T12:35:22;16.15;;;6.10;;
22965;SDS011;11649;48.090;9.754;2023-06-22T12:37:49;10.95;;;5.45;;
22965;SDS011;11649;48.090;9.754;2023-06-22T12:40:16;12.27;;;5.43;;
22965;SDS011;11649;48.090;9.754;2023-06-22T12:42:44;13.07;;;5.28;;
22965;SDS011;11649;48.090;9.754;2023-06-22T12:45:11;14.35;;;6.32;;
22965;SDS011;11649;48.090;9.754;2023-06-22T12:47:38;15.60;;;5.63;;
22965;SDS011;11649;48.090;9.754;2023-06-22T12:50:05;13.10;;;6.15;;
22965;SDS011;11649;48.090;9.754;2023-06-22T12:52:32;10.93;;;5.65;;
22965;SDS011;11649;48.090;9.754;2023-06-22T12:54:59;12.73;;;6.38;;
22965;SDS011;11649;48.090;9.754;2023-06-22T12:57:26;15.07;;;6.57;;
22965;SDS011;11649;48.090;9.754;2023-06-22T12:59:52;16.55;;;7.38;;
22965;SDS011;11649;48.090;9.754;2023-06-22T13:02:19;14.98;;;6.45;;
22965;SDS011;11649;48.090;9.754;2023-06-22T13:04:46;17.30;;;6.50;;
22965;SDS011;11649;48.090;9.754;2023-06-22T13:07:13;12.23;;;6.13;;
22965;SDS011;11649;48.090;9.754;2023-06-22T13:09:49;12.02;;;6.47;;
22965;SDS011;11649;48.090;9.754;2023-06-22T13:12:20;22.10;;;6.97;;
22965;SDS011;11649;48.090;9.754;2023-06-22T13:14:47;17.75;;;7.45;;
22965;SDS011;11649;48.090;9.754;2023-06-22T13:17:13;12.82;;;6.55;;
22965;SDS011;11649;48.090;9.754;2023-06-22T13:19:40;17.13;;;6.55;;
22965;SDS011;11649;48.090;9.754;2023-06-22T13:22:27;15.73;;;6.80;;
22965;SDS011;11649;48.090;9.754;2023-06-22T13:25:06;18.38;;;7.28;;
22965;SDS011;11649;48.090;9.754;2023-06-22T13:27:34;15.20;;;7.13;;
22965;SDS011;11649;48.090;9.754;2023-06-22T13:30:04;16.10;;;6.35;;
22965;SDS011;11649;48.090;9.754;2023-06-22T13:32:31;15.23;;;6.35;;
22965;SDS011;11649;48.090;9.754;2023-06-22T13:34:57;13.38;;;7.22;;
22965;SDS011;11649;48.090;9.754;2023-06-22T13:37:25;14.20;;;6.95;;
22965;SDS011;11649;48.090;9.754;2023-06-22T13:39:52;12.05;;;7.00;;
22965;SDS011;11649;48.090;9.754;2023-06-22T13:42:19;13.95;;;7.22;;
22965;SDS011;11649;48.090;9.754;2023-06-22T13:44:45;11.55;;;6.75;;
22965;SDS011;11649;48.090;9.754;2023-06-22T13:47:12;16.08;;;7.35;;
22965;SDS011;11649;48.090;9.754;2023-06-22T13:49:39;13.38;;;7.25;;
22965;SDS011;11649;48.090;9.754;2023-06-22T13:52:06;18.67;;;6.82;;
22965;SDS011;11649;48.090;9.754;2023-06-22T13:54:36;15.52;;;7.07;;
22965;SDS011;11649;48.090;9.754;2023-06-22T13:57:03;10.93;;;6.43;;
22965;SDS011;11649;48.090;9.754;2023-06-22T13:59:30;12.50;;;6.00;;
22965;SDS011;11649;48.090;9.754;2023-06-22T14:01:57;14.40;;;5.97;;
22965;SDS011;11649;48.090;9.754;2023-06-22T14:04:23;12.90;;;6.35;;
22965;SDS011;11649;48.090;9.754;2023-06-22T14:06:50;11.07;;;5.95;;
22965;SDS011;11649;48.090;9.754;2023-06-22T14:09:21;9.38;;;5.57;;
22965;SDS011;11649;48.090;9.754;2023-06-22T14:11:48;10.90;;;5.28;;
22965;SDS011;11649;48.090;9.754;2023-06-22T14:14:14;13.70;;;5.85;;
22965;SDS011;11649;48.090;9.754;2023-06-22T14:16:41;16.30;;;6.03;;
22965;SDS011;11649;48.090;9.754;2023-06-22T14:19:08;13.80;;;6.47;;
22965;SDS011;11649;48.090;9.754;2023-06-22T14:21:35;9.48;;;5.15;;
22965;SDS011;11649;48.090;9.754;2023-06-22T14:24:02;20.13;;;6.30;;
22965;SDS011;11649;48.090;9.754;2023-06-22T14:26:28;17.13;;;6.07;;
22965;SDS011;11649;48.090;9.754;2023-06-22T14:28:55;19.90;;;6.20;;
22965;SDS011;11649;48.090;9.754;2023-06-22T14:31:23;12.90;;;5.60;;
22965;SDS011;11649;48.090;9.754;2023-06-22T14:33:50;14.75;;;5.68;;
22965;SDS011;11649;48.090;9.754;2023-06-22T14:36:17;17.85;;;6.20;;
22965;SDS011;11649;48.090;9.754;2023-06-22T14:38:44;12.63;;;5.60;;
22965;SDS011;11649;48.090;9.754;2023-06-22T14:41:12;14.55;;;5.72;;
22965;SDS011;11649;48.090;9.754;2023-06-22T14:43:49;16.10;;;6.00;;